sensor_id;sensor_type;location;lat;lon;timestamp;temperature;humidity
25128;DHT22;13107;51.304;6.866;2022-08-30T00:00:06;17.70;99.90
25128;DHT22;13107;51.304;6.866;2022-08-30T00:04:26;17.70;99.90
25128;DHT22;13107;51.304;6.866;2022-08-30T00:08:28;17.80;99.90
25128;DHT22;13107;51.304;6.866;2022-08-30T00:12:30;17.90;99.90
25128;DHT22;13107;51.304;6.866;2022-08-30T00:16:33;17.80;99.90
25128;DHT22;13107;51.304;6.866;2022-08-30T00:20:36;17.80;99.90
25128;DHT22;13107;51.304;6.866;2022-08-30T00:24:38;17.80;99.90
25128;DHT22;13107;51.304;6.866;2022-08-30T00:28:40;17.70;99.90
25128;DHT22;13107;51.304;6.866;2022-08-30T00:32:42;17.70;99.90
25128;DHT22;13107;51.304;6.866;2022-08-30T00:36:44;17.60;99.90
25128;DHT22;13107;51.304;6.866;2022-08-30T00:40:46;17.40;99.90
25128;DHT22;13107;51.304;6.866;2022-08-30T00:44:48;17.40;99.90
25128;DHT22;13107;51.304;6.866;2022-08-30T00:48:50;17.30;99.90
25128;DHT22;13107;51.304;6.866;2022-08-30T00:52:55;17.20;99.90
25128;DHT22;13107;51.304;6.866;2022-08-30T00:56:59;17.30;99.90
25128;DHT22;13107;51.304;6.866;2022-08-30T01:01:01;17.20;99.90
25128;DHT22;13107;51.304;6.866;2022-08-30T01:05:05;17.10;99.90
25128;DHT22;13107;51.304;6.866;2022-08-30T01:09:08;17.10;99.90
25128;DHT22;13107;51.304;6.866;2022-08-30T01:13:10;17.20;99.90
25128;DHT22;13107;51.304;6.866;2022-08-30T01:17:14;17.10;99.90
25128;DHT22;13107;51.304;6.866;2022-08-30T01:21:44;17.10;99.90
25128;DHT22;13107;51.304;6.866;2022-08-30T01:26:02;17.00;99.90
25128;DHT22;13107;51.304;6.866;2022-08-30T01:30:06;17.00;99.90
25128;DHT22;13107;51.304;6.866;2022-08-30T01:34:08;17.00;99.90
25128;DHT22;13107;51.304;6.866;2022-08-30T01:38:11;17.00;99.90
25128;DHT22;13107;51.304;6.866;2022-08-30T01:42:14;17.00;99.90
25128;DHT22;13107;51.304;6.866;2022-08-30T01:46:20;17.00;99.90
25128;DHT22;13107;51.304;6.866;2022-08-30T01:50:24;16.90;99.90
25128;DHT22;13107;51.304;6.866;2022-08-30T01:54:25;16.80;99.90
25128;DHT22;13107;51.304;6.866;2022-08-30T01:58:35;16.80;99.90
25128;DHT22;13107;51.304;6.866;2022-08-30T02:02:36;16.80;99.90
25128;DHT22;13107;51.304;6.866;2022-08-30T02:06:38;16.80;99.90
25128;DHT22;13107;51.304;6.866;2022-08-30T02:10:40;16.80;99.90
25128;DHT22;13107;51.304;6.866;2022-08-30T02:14:42;16.80;99.90
25128;DHT22;13107;51.304;6.866;2022-08-30T02:18:44;16.80;99.90
25128;DHT22;13107;51.304;6.866;2022-08-30T02:22:46;16.80;99.90
25128;DHT22;13107;51.304;6.866;2022-08-30T02:26:50;16.80;99.90
25128;DHT22;13107;51.304;6.866;2022-08-30T02:30:53;16.80;99.90
25128;DHT22;13107;51.304;6.866;2022-08-30T02:34:55;16.90;99.90
25128;DHT22;13107;51.304;6.866;2022-08-30T02:38:57;16.90;99.90
25128;DHT22;13107;51.304;6.866;2022-08-30T02:42:59;16.80;99.90
25128;DHT22;13107;51.304;6.866;2022-08-30T02:47:01;16.90;99.90
25128;DHT22;13107;51.304;6.866;2022-08-30T02:51:08;16.80;99.90
25128;DHT22;13107;51.304;6.866;2022-08-30T02:55:12;16.80;99.90
25128;DHT22;13107;51.304;6.866;2022-08-30T02:59:14;16.80;99.90
25128;DHT22;13107;51.304;6.866;2022-08-30T03:03:16;16.80;99.90
25128;DHT22;13107;51.304;6.866;2022-08-30T03:07:19;16.70;99.90
25128;DHT22;13107;51.304;6.866;2022-08-30T03:11:21;16.70;99.90
25128;DHT22;13107;51.304;6.866;2022-08-30T03:15:24;16.70;99.90
25128;DHT22;13107;51.304;6.866;2022-08-30T03:19:27;16.60;99.90
25128;DHT22;13107;51.304;6.866;2022-08-30T03:23:29;16.70;99.90
25128;DHT22;13107;51.304;6.866;2022-08-30T03:27:32;16.60;99.90
25128;DHT22;13107;51.304;6.866;2022-08-30T03:31:34;16.70;99.90
25128;DHT22;13107;51.304;6.866;2022-08-30T03:35:54;16.70;99.90
25128;DHT22;13107;51.304;6.866;2022-08-30T03:39:56;16.60;99.90
25128;DHT22;13107;51.304;6.866;2022-08-30T03:43:59;16.60;99.90
25128;DHT22;13107;51.304;6.866;2022-08-30T03:48:02;16.60;99.90
25128;DHT22;13107;51.304;6.866;2022-08-30T03:52:04;16.60;99.90
25128;DHT22;13107;51.304;6.866;2022-08-30T03:56:06;16.50;99.90
25128;DHT22;13107;51.304;6.866;2022-08-30T04:00:09;16.40;99.90
25128;DHT22;13107;51.304;6.866;2022-08-30T04:04:11;16.40;99.90
25128;DHT22;13107;51.304;6.866;2022-08-30T04:08:22;16.30;99.90
25128;DHT22;13107;51.304;6.866;2022-08-30T04:12:23;16.20;99.90
25128;DHT22;13107;51.304;6.866;2022-08-30T04:16:25;16.10;99.90
25128;DHT22;13107;51.304;6.866;2022-08-30T04:20:27;16.10;99.90
25128;DHT22;13107;51.304;6.866;2022-08-30T04:24:29;16.00;99.90
25128;DHT22;13107;51.304;6.866;2022-08-30T04:28:31;16.00;99.90
25128;DHT22;13107;51.304;6.866;2022-08-30T04:32:34;16.10;99.90
25128;DHT22;13107;51.304;6.866;2022-08-30T04:36:36;16.00;99.90
25128;DHT22;13107;51.304;6.866;2022-08-30T04:40:41;16.00;99.90
25128;DHT22;13107;51.304;6.866;2022-08-30T04:44:43;15.90;99.90
25128;DHT22;13107;51.304;6.866;2022-08-30T04:48:45;15.90;99.90
25128;DHT22;13107;51.304;6.866;2022-08-30T04:52:47;15.90;99.90
25128;DHT22;13107;51.304;6.866;2022-08-30T04:56:49;15.80;99.90
25128;DHT22;13107;51.304;6.866;2022-08-30T05:00:51;15.80;99.90
25128;DHT22;13107;51.304;6.866;2022-08-30T05:04:53;15.80;99.90
25128;DHT22;13107;51.304;6.866;2022-08-30T05:09:15;15.80;99.90
25128;DHT22;13107;51.304;6.866;2022-08-30T05:13:18;15.90;99.90
25128;DHT22;13107;51.304;6.866;2022-08-30T05:17:24;15.90;99.90
25128;DHT22;13107;51.304;6.866;2022-08-30T05:21:27;16.00;99.90
25128;DHT22;13107;51.304;6.866;2022-08-30T05:25:32;16.00;99.90
25128;DHT22;13107;51.304;6.866;2022-08-30T05:29:41;16.00;99.90
25128;DHT22;13107;51.304;6.866;2022-08-30T05:33:44;16.10;99.90
25128;DHT22;13107;51.304;6.866;2022-08-30T05:37:46;16.10;99.90
25128;DHT22;13107;51.304;6.866;2022-08-30T05:41:48;16.10;99.90
25128;DHT22;13107;51.304;6.866;2022-08-30T05:46:01;16.10;99.90
25128;DHT22;13107;51.304;6.866;2022-08-30T05:50:04;16.10;99.90
25128;DHT22;13107;51.304;6.866;2022-08-30T05:54:07;16.20;99.90
25128;DHT22;13107;51.304;6.866;2022-08-30T05:58:09;16.20;99.90
25128;DHT22;13107;51.304;6.866;2022-08-30T06:02:11;16.20;99.90
25128;DHT22;13107;51.304;6.866;2022-08-30T06:06:13;16.30;99.90
25128;DHT22;13107;51.304;6.866;2022-08-30T06:10:15;16.30;99.90
25128;DHT22;13107;51.304;6.866;2022-08-30T06:14:18;16.30;99.90
25128;DHT22;13107;51.304;6.866;2022-08-30T06:18:19;16.40;99.90
25128;DHT22;13107;51.304;6.866;2022-08-30T06:22:29;16.40;99.90
25128;DHT22;13107;51.304;6.866;2022-08-30T06:26:34;16.50;99.90
25128;DHT22;13107;51.304;6.866;2022-08-30T06:30:39;16.60;99.90
25128;DHT22;13107;51.304;6.866;2022-08-30T06:34:41;16.70;99.90
25128;DHT22;13107;51.304;6.866;2022-08-30T06:38:42;16.80;99.90
25128;DHT22;13107;51.304;6.866;2022-08-30T06:42:46;16.90;99.90
25128;DHT22;13107;51.304;6.866;2022-08-30T06:46:48;17.00;99.90
25128;DHT22;13107;51.304;6.866;2022-08-30T06:50:53;17.20;99.90
25128;DHT22;13107;51.304;6.866;2022-08-30T06:54:55;17.30;99.90
25128;DHT22;13107;51.304;6.866;2022-08-30T06:58:59;17.40;99.90
25128;DHT22;13107;51.304;6.866;2022-08-30T07:03:01;17.50;99.90
25128;DHT22;13107;51.304;6.866;2022-08-30T07:07:03;17.50;99.90
25128;DHT22;13107;51.304;6.866;2022-08-30T07:11:06;17.60;99.90
25128;DHT22;13107;51.304;6.866;2022-08-30T07:15:09;17.80;99.90
25128;DHT22;13107;51.304;6.866;2022-08-30T07:19:11;18.00;99.90
25128;DHT22;13107;51.304;6.866;2022-08-30T07:23:22;18.10;99.90
25128;DHT22;13107;51.304;6.866;2022-08-30T07:27:23;18.20;99.90
25128;DHT22;13107;51.304;6.866;2022-08-30T07:31:25;18.30;99.90
25128;DHT22;13107;51.304;6.866;2022-08-30T07:35:27;18.50;99.90
25128;DHT22;13107;51.304;6.866;2022-08-30T07:39:29;18.50;99.90
25128;DHT22;13107;51.304;6.866;2022-08-30T07:43:34;18.60;99.90
25128;DHT22;13107;51.304;6.866;2022-08-30T07:47:36;18.80;99.90
25128;DHT22;13107;51.304;6.866;2022-08-30T07:51:39;19.00;99.90
25128;DHT22;13107;51.304;6.866;2022-08-30T07:55:41;19.00;99.90
25128;DHT22;13107;51.304;6.866;2022-08-30T07:59:42;19.10;99.90
25128;DHT22;13107;51.304;6.866;2022-08-30T08:03:45;19.10;99.90
25128;DHT22;13107;51.304;6.866;2022-08-30T08:07:48;19.30;99.90
25128;DHT22;13107;51.304;6.866;2022-08-30T08:11:50;19.50;99.90
25128;DHT22;13107;51.304;6.866;2022-08-30T08:15:51;19.60;99.90
25128;DHT22;13107;51.304;6.866;2022-08-30T08:19:54;19.50;99.90
25128;DHT22;13107;51.304;6.866;2022-08-30T08:23:55;19.80;99.90
25128;DHT22;13107;51.304;6.866;2022-08-30T08:27:57;19.80;99.90
25128;DHT22;13107;51.304;6.866;2022-08-30T08:31:59;19.90;99.90
25128;DHT22;13107;51.304;6.866;2022-08-30T08:36:01;20.20;99.90
25128;DHT22;13107;51.304;6.866;2022-08-30T08:40:14;20.50;99.90
25128;DHT22;13107;51.304;6.866;2022-08-30T08:44:45;20.60;99.90
25128;DHT22;13107;51.304;6.866;2022-08-30T08:48:57;20.60;99.90
25128;DHT22;13107;51.304;6.866;2022-08-30T08:53:29;20.80;99.90
25128;DHT22;13107;51.304;6.866;2022-08-30T08:57:56;21.10;99.90
25128;DHT22;13107;51.304;6.866;2022-08-30T09:01:59;21.10;99.90
25128;DHT22;13107;51.304;6.866;2022-08-30T09:10:32;21.40;99.90
25128;DHT22;13107;51.304;6.866;2022-08-30T09:14:53;21.40;99.90
25128;DHT22;13107;51.304;6.866;2022-08-30T09:18:56;21.70;99.90
25128;DHT22;13107;51.304;6.866;2022-08-30T09:23:09;22.00;99.90
25128;DHT22;13107;51.304;6.866;2022-08-30T09:27:24;22.00;99.90
25128;DHT22;13107;51.304;6.866;2022-08-30T09:31:30;22.20;99.90
25128;DHT22;13107;51.304;6.866;2022-08-30T09:35:43;22.80;99.90
25128;DHT22;13107;51.304;6.866;2022-08-30T09:39:47;23.00;99.90
25128;DHT22;13107;51.304;6.866;2022-08-30T09:44:13;23.40;99.90
25128;DHT22;13107;51.304;6.866;2022-08-30T10:01:51;24.10;99.90
25128;DHT22;13107;51.304;6.866;2022-08-30T10:10:44;23.20;99.90
25128;DHT22;13107;51.304;6.866;2022-08-30T10:15:23;23.90;99.90
25128;DHT22;13107;51.304;6.866;2022-08-30T10:20:05;24.00;99.90
25128;DHT22;13107;51.304;6.866;2022-08-30T10:24:15;24.40;99.90
25128;DHT22;13107;51.304;6.866;2022-08-30T10:28:34;25.10;99.90
25128;DHT22;13107;51.304;6.866;2022-08-30T10:32:50;25.30;99.90
25128;DHT22;13107;51.304;6.866;2022-08-30T10:37:03;25.40;99.90
25128;DHT22;13107;51.304;6.866;2022-08-30T10:41:35;24.60;99.90
25128;DHT22;13107;51.304;6.866;2022-08-30T10:45:41;23.90;99.90
25128;DHT22;13107;51.304;6.866;2022-08-30T10:49:45;23.50;99.90
25128;DHT22;13107;51.304;6.866;2022-08-30T10:53:56;23.10;99.90
25128;DHT22;13107;51.304;6.866;2022-08-30T10:57:59;23.00;99.90
25128;DHT22;13107;51.304;6.866;2022-08-30T11:15:18;23.20;99.90
25128;DHT22;13107;51.304;6.866;2022-08-30T11:19:48;23.30;99.90
25128;DHT22;13107;51.304;6.866;2022-08-30T11:41:40;23.80;99.90
25128;DHT22;13107;51.304;6.866;2022-08-30T11:45:48;23.80;99.90
25128;DHT22;13107;51.304;6.866;2022-08-30T11:50:06;23.70;99.90
25128;DHT22;13107;51.304;6.866;2022-08-30T11:58:50;24.10;99.90
25128;DHT22;13107;51.304;6.866;2022-08-30T12:03:01;24.10;99.90
25128;DHT22;13107;51.304;6.866;2022-08-30T12:07:06;24.10;99.90
25128;DHT22;13107;51.304;6.866;2022-08-30T12:15:50;24.60;99.90
25128;DHT22;13107;51.304;6.866;2022-08-30T12:19:49;24.60;99.90
25128;DHT22;13107;51.304;6.866;2022-08-30T12:28:32;24.60;99.90
25128;DHT22;13107;51.304;6.866;2022-08-30T12:32:43;24.30;99.90
25128;DHT22;13107;51.304;6.866;2022-08-30T12:37:19;24.60;99.90
25128;DHT22;13107;51.304;6.866;2022-08-30T12:41:22;24.60;99.90
25128;DHT22;13107;51.304;6.866;2022-08-30T12:45:27;24.50;99.90
25128;DHT22;13107;51.304;6.866;2022-08-30T12:49:35;24.70;99.90
25128;DHT22;13107;51.304;6.866;2022-08-30T12:53:40;24.80;99.90
25128;DHT22;13107;51.304;6.866;2022-08-30T12:58:09;24.80;99.90
25128;DHT22;13107;51.304;6.866;2022-08-30T13:02:14;24.70;99.90
25128;DHT22;13107;51.304;6.866;2022-08-30T13:11:05;25.10;99.90
25128;DHT22;13107;51.304;6.866;2022-08-30T13:15:10;25.10;99.90
25128;DHT22;13107;51.304;6.866;2022-08-30T13:19:31;25.10;99.90
25128;DHT22;13107;51.304;6.866;2022-08-30T13:23:34;25.10;99.90
25128;DHT22;13107;51.304;6.866;2022-08-30T13:27:37;25.10;99.90
25128;DHT22;13107;51.304;6.866;2022-08-30T13:31:40;25.30;99.90
25128;DHT22;13107;51.304;6.866;2022-08-30T13:35:44;25.40;99.90
25128;DHT22;13107;51.304;6.866;2022-08-30T13:39:46;25.60;99.90
25128;DHT22;13107;51.304;6.866;2022-08-30T13:43:48;25.20;99.90
25128;DHT22;13107;51.304;6.866;2022-08-30T13:48:10;25.50;99.90
25128;DHT22;13107;51.304;6.866;2022-08-30T13:52:19;25.60;99.90
25128;DHT22;13107;51.304;6.866;2022-08-30T13:56:30;25.60;99.90
25128;DHT22;13107;51.304;6.866;2022-08-30T14:00:32;25.30;99.90
25128;DHT22;13107;51.304;6.866;2022-08-30T14:04:38;25.40;99.90
25128;DHT22;13107;51.304;6.866;2022-08-30T14:08:40;25.60;99.90
25128;DHT22;13107;51.304;6.866;2022-08-30T14:12:49;25.60;99.90
25128;DHT22;13107;51.304;6.866;2022-08-30T14:17:01;25.80;99.90
25128;DHT22;13107;51.304;6.866;2022-08-30T14:21:03;26.10;99.90
25128;DHT22;13107;51.304;6.866;2022-08-30T14:25:06;26.30;99.30
25128;DHT22;13107;51.304;6.866;2022-08-30T14:29:10;26.50;98.40
25128;DHT22;13107;51.304;6.866;2022-08-30T14:33:19;26.30;97.60
25128;DHT22;13107;51.304;6.866;2022-08-30T14:37:21;26.30;97.70
25128;DHT22;13107;51.304;6.866;2022-08-30T14:41:25;26.10;97.60
25128;DHT22;13107;51.304;6.866;2022-08-30T14:45:27;26.10;97.00
25128;DHT22;13107;51.304;6.866;2022-08-30T14:49:29;25.90;97.50
25128;DHT22;13107;51.304;6.866;2022-08-30T14:53:31;25.70;97.10
25128;DHT22;13107;51.304;6.866;2022-08-30T14:57:33;25.60;96.80
25128;DHT22;13107;51.304;6.866;2022-08-30T15:01:37;25.60;97.50
25128;DHT22;13107;51.304;6.866;2022-08-30T15:05:39;25.50;97.40
25128;DHT22;13107;51.304;6.866;2022-08-30T15:09:42;25.50;97.30
25128;DHT22;13107;51.304;6.866;2022-08-30T15:13:44;25.50;97.30
25128;DHT22;13107;51.304;6.866;2022-08-30T15:17:47;25.40;97.60
25128;DHT22;13107;51.304;6.866;2022-08-30T15:21:50;25.30;97.30
25128;DHT22;13107;51.304;6.866;2022-08-30T15:25:51;25.30;96.90
25128;DHT22;13107;51.304;6.866;2022-08-30T15:29:54;25.10;97.30
25128;DHT22;13107;51.304;6.866;2022-08-30T15:33:57;25.10;97.80
25128;DHT22;13107;51.304;6.866;2022-08-30T15:37:59;25.10;98.30
25128;DHT22;13107;51.304;6.866;2022-08-30T15:42:01;25.00;98.10
25128;DHT22;13107;51.304;6.866;2022-08-30T15:46:23;24.80;98.70
25128;DHT22;13107;51.304;6.866;2022-08-30T15:50:30;24.80;98.80
25128;DHT22;13107;51.304;6.866;2022-08-30T15:54:32;24.70;99.30
25128;DHT22;13107;51.304;6.866;2022-08-30T15:58:34;24.90;99.10
25128;DHT22;13107;51.304;6.866;2022-08-30T16:02:36;24.70;99.00
25128;DHT22;13107;51.304;6.866;2022-08-30T16:06:39;24.70;99.40
25128;DHT22;13107;51.304;6.866;2022-08-30T16:10:42;24.70;99.50
25128;DHT22;13107;51.304;6.866;2022-08-30T16:14:46;24.60;99.70
25128;DHT22;13107;51.304;6.866;2022-08-30T16:18:50;24.50;99.20
25128;DHT22;13107;51.304;6.866;2022-08-30T16:22:55;24.40;99.40
25128;DHT22;13107;51.304;6.866;2022-08-30T16:26:57;24.30;99.70
25128;DHT22;13107;51.304;6.866;2022-08-30T16:31:00;24.10;99.80
25128;DHT22;13107;51.304;6.866;2022-08-30T16:35:03;24.20;99.50
25128;DHT22;13107;51.304;6.866;2022-08-30T16:39:08;24.10;99.90
25128;DHT22;13107;51.304;6.866;2022-08-30T16:43:10;23.90;99.90
25128;DHT22;13107;51.304;6.866;2022-08-30T16:47:12;23.90;99.90
25128;DHT22;13107;51.304;6.866;2022-08-30T16:51:18;23.70;99.90
25128;DHT22;13107;51.304;6.866;2022-08-30T16:55:20;23.50;99.90
25128;DHT22;13107;51.304;6.866;2022-08-30T16:59:23;23.50;99.90
25128;DHT22;13107;51.304;6.866;2022-08-30T17:03:25;23.40;99.90
25128;DHT22;13107;51.304;6.866;2022-08-30T17:07:27;23.30;99.90
25128;DHT22;13107;51.304;6.866;2022-08-30T17:11:30;23.20;99.90
25128;DHT22;13107;51.304;6.866;2022-08-30T17:15:32;23.00;99.90
25128;DHT22;13107;51.304;6.866;2022-08-30T17:19:34;23.00;99.90
25128;DHT22;13107;51.304;6.866;2022-08-30T17:23:41;22.90;99.90
25128;DHT22;13107;51.304;6.866;2022-08-30T17:27:45;22.80;99.90
25128;DHT22;13107;51.304;6.866;2022-08-30T17:31:47;22.70;99.90
25128;DHT22;13107;51.304;6.866;2022-08-30T17:35:53;22.70;99.90
25128;DHT22;13107;51.304;6.866;2022-08-30T17:39:56;22.60;99.90
25128;DHT22;13107;51.304;6.866;2022-08-30T17:44:01;22.60;99.90
25128;DHT22;13107;51.304;6.866;2022-08-30T17:48:03;22.40;99.90
25128;DHT22;13107;51.304;6.866;2022-08-30T17:52:07;22.30;99.90
25128;DHT22;13107;51.304;6.866;2022-08-30T17:56:12;22.30;99.90
25128;DHT22;13107;51.304;6.866;2022-08-30T18:00:15;22.20;99.90
25128;DHT22;13107;51.304;6.866;2022-08-30T18:04:19;22.00;99.90
25128;DHT22;13107;51.304;6.866;2022-08-30T18:08:21;22.00;99.90
25128;DHT22;13107;51.304;6.866;2022-08-30T18:12:23;21.90;99.90
25128;DHT22;13107;51.304;6.866;2022-08-30T18:16:27;21.90;99.90
25128;DHT22;13107;51.304;6.866;2022-08-30T18:20:30;21.70;99.90
25128;DHT22;13107;51.304;6.866;2022-08-30T18:24:33;21.70;99.90
25128;DHT22;13107;51.304;6.866;2022-08-30T18:28:35;21.60;99.90
25128;DHT22;13107;51.304;6.866;2022-08-30T18:32:37;21.60;99.90
25128;DHT22;13107;51.304;6.866;2022-08-30T18:36:39;21.50;99.90
25128;DHT22;13107;51.304;6.866;2022-08-30T18:40:42;21.40;99.90
25128;DHT22;13107;51.304;6.866;2022-08-30T18:44:44;21.30;99.90
25128;DHT22;13107;51.304;6.866;2022-08-30T18:48:47;21.20;99.90
25128;DHT22;13107;51.304;6.866;2022-08-30T18:52:49;21.10;99.90
25128;DHT22;13107;51.304;6.866;2022-08-30T18:56:56;21.10;99.90
25128;DHT22;13107;51.304;6.866;2022-08-30T19:00:58;21.00;99.90
25128;DHT22;13107;51.304;6.866;2022-08-30T19:05:00;21.00;99.90
25128;DHT22;13107;51.304;6.866;2022-08-30T19:09:02;21.00;99.90
25128;DHT22;13107;51.304;6.866;2022-08-30T19:13:09;20.90;99.90
25128;DHT22;13107;51.304;6.866;2022-08-30T19:17:13;20.90;99.90
25128;DHT22;13107;51.304;6.866;2022-08-30T19:21:15;20.90;99.90
25128;DHT22;13107;51.304;6.866;2022-08-30T19:25:18;20.90;99.90
25128;DHT22;13107;51.304;6.866;2022-08-30T19:29:21;20.90;99.90
25128;DHT22;13107;51.304;6.866;2022-08-30T19:33:24;20.70;99.90
25128;DHT22;13107;51.304;6.866;2022-08-30T19:37:27;20.70;99.90
25128;DHT22;13107;51.304;6.866;2022-08-30T19:41:28;20.60;99.90
25128;DHT22;13107;51.304;6.866;2022-08-30T19:45:30;20.60;99.90
25128;DHT22;13107;51.304;6.866;2022-08-30T19:49:34;20.60;99.90
25128;DHT22;13107;51.304;6.866;2022-08-30T19:53:36;20.50;99.90
25128;DHT22;13107;51.304;6.866;2022-08-30T19:57:38;20.50;99.90
25128;DHT22;13107;51.304;6.866;2022-08-30T20:01:40;20.40;99.90
25128;DHT22;13107;51.304;6.866;2022-08-30T20:05:46;20.40;99.90
25128;DHT22;13107;51.304;6.866;2022-08-30T20:09:50;20.40;99.90
25128;DHT22;13107;51.304;6.866;2022-08-30T20:13:52;20.40;99.90
25128;DHT22;13107;51.304;6.866;2022-08-30T20:18:01;20.40;99.90
25128;DHT22;13107;51.304;6.866;2022-08-30T20:22:10;20.40;99.90
25128;DHT22;13107;51.304;6.866;2022-08-30T20:26:15;20.40;99.90
25128;DHT22;13107;51.304;6.866;2022-08-30T20:30:18;20.40;99.90
25128;DHT22;13107;51.304;6.866;2022-08-30T20:34:19;20.30;99.90
25128;DHT22;13107;51.304;6.866;2022-08-30T20:38:27;20.30;99.90
25128;DHT22;13107;51.304;6.866;2022-08-30T20:42:29;20.30;99.90
25128;DHT22;13107;51.304;6.866;2022-08-30T20:46:31;20.10;99.90
25128;DHT22;13107;51.304;6.866;2022-08-30T20:50:37;20.10;99.90
25128;DHT22;13107;51.304;6.866;2022-08-30T20:54:39;20.20;99.90
25128;DHT22;13107;51.304;6.866;2022-08-30T20:58:41;20.00;99.90
25128;DHT22;13107;51.304;6.866;2022-08-30T21:02:43;20.10;99.90
25128;DHT22;13107;51.304;6.866;2022-08-30T21:06:49;20.00;99.90
25128;DHT22;13107;51.304;6.866;2022-08-30T21:10:51;19.90;99.90
25128;DHT22;13107;51.304;6.866;2022-08-30T21:14:54;19.90;99.90
25128;DHT22;13107;51.304;6.866;2022-08-30T21:18:56;19.90;99.90
25128;DHT22;13107;51.304;6.866;2022-08-30T21:22:57;19.90;99.90
25128;DHT22;13107;51.304;6.866;2022-08-30T21:26:59;19.80;99.90
25128;DHT22;13107;51.304;6.866;2022-08-30T21:31:10;19.70;99.90
25128;DHT22;13107;51.304;6.866;2022-08-30T21:35:12;19.70;99.90
25128;DHT22;13107;51.304;6.866;2022-08-30T21:39:32;19.70;99.90
25128;DHT22;13107;51.304;6.866;2022-08-30T21:43:35;19.70;99.90
25128;DHT22;13107;51.304;6.866;2022-08-30T21:47:37;19.70;99.90
25128;DHT22;13107;51.304;6.866;2022-08-30T21:51:41;19.60;99.90
25128;DHT22;13107;51.304;6.866;2022-08-30T21:55:44;19.70;99.90
25128;DHT22;13107;51.304;6.866;2022-08-30T21:59:48;19.60;99.90
25128;DHT22;13107;51.304;6.866;2022-08-30T22:03:52;19.60;99.90
25128;DHT22;13107;51.304;6.866;2022-08-30T22:07:54;19.60;99.90
25128;DHT22;13107;51.304;6.866;2022-08-30T22:11:56;19.60;99.90
25128;DHT22;13107;51.304;6.866;2022-08-30T22:15:58;19.50;99.90
25128;DHT22;13107;51.304;6.866;2022-08-30T22:20:00;19.50;99.90
25128;DHT22;13107;51.304;6.866;2022-08-30T22:24:02;19.40;99.90
25128;DHT22;13107;51.304;6.866;2022-08-30T22:28:04;19.40;99.90
25128;DHT22;13107;51.304;6.866;2022-08-30T22:32:07;19.30;99.90
25128;DHT22;13107;51.304;6.866;2022-08-30T22:36:14;19.30;99.90
25128;DHT22;13107;51.304;6.866;2022-08-30T22:40:16;19.20;99.90
25128;DHT22;13107;51.304;6.866;2022-08-30T22:44:18;19.30;99.90
25128;DHT22;13107;51.304;6.866;2022-08-30T22:48:19;19.20;99.90
25128;DHT22;13107;51.304;6.866;2022-08-30T22:52:21;19.20;99.90
25128;DHT22;13107;51.304;6.866;2022-08-30T22:56:26;19.00;99.90
25128;DHT22;13107;51.304;6.866;2022-08-30T23:00:28;19.00;99.90
25128;DHT22;13107;51.304;6.866;2022-08-30T23:04:31;19.00;99.90
25128;DHT22;13107;51.304;6.866;2022-08-30T23:08:33;18.90;99.90
25128;DHT22;13107;51.304;6.866;2022-08-30T23:12:35;18.90;99.90
25128;DHT22;13107;51.304;6.866;2022-08-30T23:16:37;18.90;99.90
25128;DHT22;13107;51.304;6.866;2022-08-30T23:20:39;18.90;99.90
25128;DHT22;13107;51.304;6.866;2022-08-30T23:24:41;18.90;99.90
25128;DHT22;13107;51.304;6.866;2022-08-30T23:29:02;18.90;99.90
25128;DHT22;13107;51.304;6.866;2022-08-30T23:33:22;18.90;99.90
25128;DHT22;13107;51.304;6.866;2022-08-30T23:37:43;18.90;99.90
25128;DHT22;13107;51.304;6.866;2022-08-30T23:42:03;19.00;99.90
25128;DHT22;13107;51.304;6.866;2022-08-30T23:46:24;18.90;99.90
25128;DHT22;13107;51.304;6.866;2022-08-30T23:50:44;18.90;99.90
25128;DHT22;13107;51.304;6.866;2022-08-30T23:55:05;18.90;99.90
25128;DHT22;13107;51.304;6.866;2022-08-30T23:59:26;18.90;99.90
